Williamsfield, Ohio
Current Conditions -  °F | °C
As of 1:53 AM on Monday 24 Nov 2014 (Local Time) from KHZY Reporting Station
Overcast Overcast  
Wind Chill: 55°   Ceiling: 3200
Heat Index: 55°   Visibility: 10mi
Dew Point: 51°   Wind: 23mph
Humidity: 86%   Direction: 160°SSE
Pressure: 29.31"   Gusts: 33mph
Location:  41.53°N, 80.57°W
Report Text: KHZY 240653Z AUTO 16020G29KT 10SM FEW018 BKN032 OVC047 13/11 A2931 RMK AO2 PK WND 15032/0642 RAE33 SLP922 P0000 T01280106
Loading
Personal Weather Stations






























Interactive Weather Map New forecast layout! Learn more

10-Day Weather Forecast

Advertisements
Track Severe Weather on mobile